BZE weather

Philip S. W. Goldson International Airport
Belize City, Belize District, Belize

Public forecast

Using degrees Celsius for public forecast. Weather courtesy of forecast.io.

METAR (pilot weather report)

Retrieved 2019/06/26 23:00 UTC (50 minutes ago):

MZBZ 262300Z 08012KT 9999 SCT022 31/26 A2992 Q1013 NOSIG

TAF (pilot weather forecast)

Forecast is more than 6 hours old.

Retrieved 2019/06/26 12:00 UTC (12 hours ago):

TAF MZBZ 261100Z 2612/2712 09008KT 9999 SCT024 PROB30 TEMPO 2615/2618 5000 SHRA BKN015